createdAt,value
2022-07-29T06:13:32.423Z,73.19
2022-07-29T06:23:32.210Z,71.16
2022-07-29T06:33:32.338Z,71.22
2022-07-29T06:43:32.430Z,70.15
2022-07-29T06:53:32.399Z,68.40
2022-07-29T07:03:32.361Z,66.96
2022-07-29T07:13:32.455Z,65.99
2022-07-29T07:23:32.463Z,66.15
2022-07-29T07:33:32.459Z,66.43
2022-07-29T07:43:32.464Z,65.92
2022-07-29T07:53:32.692Z,65.51
2022-07-29T08:03:32.440Z,62.91
2022-07-29T08:13:32.304Z,63.53
2022-07-29T08:23:47.100Z,62.17
2022-07-29T08:33:32.580Z,61.63
2022-07-29T08:43:32.498Z,61.94
2022-07-29T08:53:32.373Z,62.70
2022-07-29T09:03:32.616Z,62.39
2022-07-29T09:13:32.549Z,62.52
2022-07-29T09:23:32.574Z,61.14
2022-07-29T09:33:32.348Z,61.05
2022-07-29T09:43:32.608Z,58.15
2022-07-29T09:53:32.768Z,57.05
2022-07-29T10:03:32.621Z,56.42
2022-07-29T10:13:32.573Z,56.03
2022-07-29T10:23:46.314Z,54.66
2022-07-29T10:33:32.421Z,54.28
2022-07-29T10:43:32.646Z,53.21
2022-07-29T10:53:33.838Z,52.16
2022-07-29T11:03:32.638Z,51.41
2022-07-29T11:13:34.123Z,50.53
2022-07-29T11:23:33.917Z,49.02
2022-07-29T11:33:54.285Z,47.26
2022-07-29T11:43:32.624Z,47.15
2022-07-29T11:53:33.303Z,46.62
2022-07-29T12:03:35.005Z,45.10
2022-07-29T12:13:37.684Z,43.05
2022-07-29T12:23:34.843Z,43.12
2022-07-29T12:33:32.637Z,43.41
2022-07-29T12:43:32.698Z,43.02
2022-07-29T12:53:32.569Z,42.63
2022-07-29T13:03:35.874Z,42.09
2022-07-29T13:13:32.739Z,41.52
2022-07-29T13:23:32.578Z,40.01
2022-07-29T13:33:32.822Z,38.85
2022-07-29T13:43:32.729Z,37.78
2022-07-29T13:53:32.795Z,36.36
2022-07-29T14:03:32.754Z,36.33
2022-07-29T14:13:32.799Z,36.61
2022-07-29T14:23:32.798Z,36.57
2022-07-29T14:33:32.648Z,36.51
2022-07-29T14:43:32.816Z,35.86
2022-07-29T14:53:32.878Z,35.53
2022-07-29T15:03:33.892Z,35.82
2022-07-29T15:13:32.661Z,34.91
2022-07-29T15:23:32.761Z,35.98
2022-07-29T15:33:32.981Z,34.89
2022-07-29T15:43:32.833Z,35.37
2022-07-29T15:53:33.103Z,35.12
2022-07-29T16:03:33.020Z,36.91
2022-07-29T16:13:33.038Z,36.95
2022-07-29T16:23:32.887Z,35.72
2022-07-29T16:33:53.625Z,36.75
2022-07-29T16:43:32.997Z,37.05
2022-07-29T16:53:32.889Z,36.97
2022-07-29T17:03:32.846Z,37.74
2022-07-29T17:13:33.098Z,37.13
2022-07-29T17:23:33.225Z,37.21
2022-07-29T17:33:33.050Z,37.34
2022-07-29T17:43:33.185Z,37.38
2022-07-29T17:53:33.105Z,37.92
2022-07-29T18:03:33.198Z,38.55
2022-07-29T18:13:33.077Z,39.07
2022-07-29T18:23:33.270Z,39.62
2022-07-29T18:33:33.549Z,40.16
2022-07-29T18:43:33.488Z,40.72
2022-07-29T18:53:33.594Z,42.21
2022-07-29T19:03:33.675Z,42.65
2022-07-29T19:13:33.691Z,42.93
